sensor_id;sensor_type;location;lat;lon;timestamp;P1;durP1;ratioP1;P2;durP2;ratioP2
49610;SDS011;35515;48.766;9.176;2023-07-02T00:01:17;4.05;;;3.10;;
49610;SDS011;35515;48.766;9.176;2023-07-02T00:03:43;4.57;;;2.78;;
49610;SDS011;35515;48.766;9.176;2023-07-02T00:06:10;4.65;;;2.63;;
49610;SDS011;35515;48.766;9.176;2023-07-02T00:08:36;5.13;;;3.75;;
49610;SDS011;35515;48.766;9.176;2023-07-02T00:11:03;6.03;;;3.25;;
49610;SDS011;35515;48.766;9.176;2023-07-02T00:13:29;5.68;;;3.17;;
49610;SDS011;35515;48.766;9.176;2023-07-02T00:15:56;4.60;;;2.80;;
49610;SDS011;35515;48.766;9.176;2023-07-02T00:18:25;5.25;;;3.08;;
49610;SDS011;35515;48.766;9.176;2023-07-02T00:20:54;5.30;;;3.25;;
49610;SDS011;35515;48.766;9.176;2023-07-02T00:23:20;7.25;;;2.88;;
49610;SDS011;35515;48.766;9.176;2023-07-02T00:25:47;4.57;;;3.17;;
49610;SDS011;35515;48.766;9.176;2023-07-02T00:28:13;3.55;;;2.75;;
49610;SDS011;35515;48.766;9.176;2023-07-02T00:30:40;4.25;;;3.00;;
49610;SDS011;35515;48.766;9.176;2023-07-02T00:33:06;6.60;;;2.90;;
49610;SDS011;35515;48.766;9.176;2023-07-02T00:35:34;3.85;;;2.38;;
49610;SDS011;35515;48.766;9.176;2023-07-02T00:38:01;4.70;;;3.40;;
49610;SDS011;35515;48.766;9.176;2023-07-02T00:40:28;4.90;;;2.90;;
49610;SDS011;35515;48.766;9.176;2023-07-02T00:42:54;3.78;;;2.67;;
49610;SDS011;35515;48.766;9.176;2023-07-02T00:45:21;4.05;;;2.90;;
49610;SDS011;35515;48.766;9.176;2023-07-02T00:47:53;4.15;;;3.00;;
49610;SDS011;35515;48.766;9.176;2023-07-02T00:50:20;4.22;;;2.90;;
49610;SDS011;35515;48.766;9.176;2023-07-02T00:52:48;4.53;;;2.97;;
49610;SDS011;35515;48.766;9.176;2023-07-02T00:55:15;5.07;;;3.17;;
49610;SDS011;35515;48.766;9.176;2023-07-02T00:57:41;3.03;;;2.70;;
49610;SDS011;35515;48.766;9.176;2023-07-02T01:00:11;3.63;;;2.65;;
49610;SDS011;35515;48.766;9.176;2023-07-02T01:02:39;4.75;;;2.97;;
49610;SDS011;35515;48.766;9.176;2023-07-02T01:05:09;4.85;;;3.15;;
49610;SDS011;35515;48.766;9.176;2023-07-02T01:07:35;4.90;;;3.15;;
49610;SDS011;35515;48.766;9.176;2023-07-02T01:10:04;5.65;;;2.85;;
49610;SDS011;35515;48.766;9.176;2023-07-02T01:12:30;4.18;;;2.75;;
49610;SDS011;35515;48.766;9.176;2023-07-02T01:14:58;5.75;;;2.95;;
49610;SDS011;35515;48.766;9.176;2023-07-02T01:17:29;5.20;;;3.22;;
49610;SDS011;35515;48.766;9.176;2023-07-02T01:20:04;4.70;;;2.67;;
49610;SDS011;35515;48.766;9.176;2023-07-02T01:22:33;3.47;;;2.70;;
49610;SDS011;35515;48.766;9.176;2023-07-02T01:25:00;4.80;;;2.55;;
49610;SDS011;35515;48.766;9.176;2023-07-02T01:27:27;4.45;;;3.08;;
49610;SDS011;35515;48.766;9.176;2023-07-02T01:29:54;5.40;;;3.00;;
49610;SDS011;35515;48.766;9.176;2023-07-02T01:32:21;5.22;;;2.80;;
49610;SDS011;35515;48.766;9.176;2023-07-02T01:34:48;3.80;;;2.83;;
49610;SDS011;35515;48.766;9.176;2023-07-02T01:37:19;4.78;;;2.90;;
49610;SDS011;35515;48.766;9.176;2023-07-02T01:39:46;5.82;;;2.60;;
49610;SDS011;35515;48.766;9.176;2023-07-02T01:42:13;4.53;;;2.78;;
49610;SDS011;35515;48.766;9.176;2023-07-02T01:44:41;3.83;;;2.67;;
49610;SDS011;35515;48.766;9.176;2023-07-02T01:47:08;4.10;;;2.70;;
49610;SDS011;35515;48.766;9.176;2023-07-02T01:49:35;4.90;;;2.38;;
49610;SDS011;35515;48.766;9.176;2023-07-02T01:52:03;3.53;;;2.70;;
49610;SDS011;35515;48.766;9.176;2023-07-02T01:54:32;4.30;;;2.80;;
49610;SDS011;35515;48.766;9.176;2023-07-02T01:56:59;3.88;;;2.67;;
49610;SDS011;35515;48.766;9.176;2023-07-02T01:59:26;4.97;;;2.47;;
49610;SDS011;35515;48.766;9.176;2023-07-02T02:01:53;4.65;;;2.50;;
49610;SDS011;35515;48.766;9.176;2023-07-02T02:04:19;3.72;;;2.35;;
49610;SDS011;35515;48.766;9.176;2023-07-02T02:06:46;3.25;;;2.55;;
49610;SDS011;35515;48.766;9.176;2023-07-02T02:09:12;5.15;;;2.85;;
49610;SDS011;35515;48.766;9.176;2023-07-02T02:11:42;3.97;;;2.65;;
49610;SDS011;35515;48.766;9.176;2023-07-02T02:14:10;5.90;;;3.38;;
49610;SDS011;35515;48.766;9.176;2023-07-02T02:16:36;3.58;;;2.80;;
49610;SDS011;35515;48.766;9.176;2023-07-02T02:19:03;5.85;;;2.80;;
49610;SDS011;35515;48.766;9.176;2023-07-02T02:21:30;4.90;;;2.85;;
49610;SDS011;35515;48.766;9.176;2023-07-02T02:23:57;4.05;;;2.80;;
49610;SDS011;35515;48.766;9.176;2023-07-02T02:26:23;4.70;;;2.90;;
49610;SDS011;35515;48.766;9.176;2023-07-02T02:28:51;4.55;;;2.78;;
49610;SDS011;35515;48.766;9.176;2023-07-02T02:31:18;6.65;;;2.88;;
49610;SDS011;35515;48.766;9.176;2023-07-02T02:33:45;3.63;;;3.00;;
49610;SDS011;35515;48.766;9.176;2023-07-02T02:36:11;3.72;;;2.75;;
49610;SDS011;35515;48.766;9.176;2023-07-02T02:38:38;4.93;;;3.22;;
49610;SDS011;35515;48.766;9.176;2023-07-02T02:41:05;6.07;;;3.00;;
49610;SDS011;35515;48.766;9.176;2023-07-02T02:43:33;5.55;;;3.00;;
49610;SDS011;35515;48.766;9.176;2023-07-02T02:46:01;4.28;;;2.63;;
49610;SDS011;35515;48.766;9.176;2023-07-02T02:48:27;5.47;;;2.95;;
49610;SDS011;35515;48.766;9.176;2023-07-02T02:50:54;4.78;;;3.17;;
49610;SDS011;35515;48.766;9.176;2023-07-02T02:53:20;5.32;;;3.55;;
49610;SDS011;35515;48.766;9.176;2023-07-02T02:55:47;3.13;;;2.47;;
49610;SDS011;35515;48.766;9.176;2023-07-02T02:58:13;4.47;;;3.05;;
49610;SDS011;35515;48.766;9.176;2023-07-02T03:00:40;5.35;;;3.25;;
49610;SDS011;35515;48.766;9.176;2023-07-02T03:03:11;5.17;;;2.93;;
49610;SDS011;35515;48.766;9.176;2023-07-02T03:05:38;4.65;;;3.00;;
49610;SDS011;35515;48.766;9.176;2023-07-02T03:08:05;5.72;;;3.63;;
49610;SDS011;35515;48.766;9.176;2023-07-02T03:10:31;3.47;;;2.90;;
49610;SDS011;35515;48.766;9.176;2023-07-02T03:12:58;8.27;;;5.43;;
49610;SDS011;35515;48.766;9.176;2023-07-02T03:15:24;4.15;;;2.60;;
49610;SDS011;35515;48.766;9.176;2023-07-02T03:17:51;5.10;;;2.70;;
49610;SDS011;35515;48.766;9.176;2023-07-02T03:20:19;4.93;;;2.53;;
49610;SDS011;35515;48.766;9.176;2023-07-02T03:22:46;5.65;;;2.70;;
49610;SDS011;35515;48.766;9.176;2023-07-02T03:25:12;3.30;;;2.50;;
49610;SDS011;35515;48.766;9.176;2023-07-02T03:27:39;3.38;;;2.80;;
49610;SDS011;35515;48.766;9.176;2023-07-02T03:30:06;4.70;;;2.60;;
49610;SDS011;35515;48.766;9.176;2023-07-02T03:32:33;5.53;;;2.72;;
49610;SDS011;35515;48.766;9.176;2023-07-02T03:35:00;4.40;;;2.53;;
49610;SDS011;35515;48.766;9.176;2023-07-02T03:37:28;3.80;;;2.30;;
49610;SDS011;35515;48.766;9.176;2023-07-02T03:39:54;5.95;;;2.83;;
49610;SDS011;35515;48.766;9.176;2023-07-02T03:42:21;5.07;;;2.55;;
49610;SDS011;35515;48.766;9.176;2023-07-02T03:44:47;4.25;;;3.03;;
49610;SDS011;35515;48.766;9.176;2023-07-02T03:47:14;3.70;;;2.70;;
49610;SDS011;35515;48.766;9.176;2023-07-02T03:49:41;6.90;;;3.30;;
49610;SDS011;35515;48.766;9.176;2023-07-02T03:52:07;7.97;;;3.25;;
49610;SDS011;35515;48.766;9.176;2023-07-02T03:54:35;5.70;;;3.38;;
49610;SDS011;35515;48.766;9.176;2023-07-02T03:57:02;4.45;;;3.05;;
49610;SDS011;35515;48.766;9.176;2023-07-02T03:59:28;4.60;;;2.92;;
49610;SDS011;35515;48.766;9.176;2023-07-02T04:01:55;5.32;;;3.20;;
49610;SDS011;35515;48.766;9.176;2023-07-02T04:04:21;4.70;;;3.10;;
49610;SDS011;35515;48.766;9.176;2023-07-02T04:06:48;4.55;;;3.25;;
49610;SDS011;35515;48.766;9.176;2023-07-02T04:09:14;8.73;;;3.15;;
49610;SDS011;35515;48.766;9.176;2023-07-02T04:11:44;4.65;;;3.50;;
49610;SDS011;35515;48.766;9.176;2023-07-02T04:14:11;6.65;;;3.15;;
49610;SDS011;35515;48.766;9.176;2023-07-02T04:16:37;10.05;;;3.47;;
49610;SDS011;35515;48.766;9.176;2023-07-02T04:19:04;7.43;;;3.20;;
49610;SDS011;35515;48.766;9.176;2023-07-02T04:21:30;5.28;;;3.47;;
49610;SDS011;35515;48.766;9.176;2023-07-02T04:23:57;7.53;;;3.67;;
49610;SDS011;35515;48.766;9.176;2023-07-02T04:26:23;8.07;;;3.65;;
49610;SDS011;35515;48.766;9.176;2023-07-02T04:28:53;6.20;;;3.95;;
49610;SDS011;35515;48.766;9.176;2023-07-02T04:31:19;5.72;;;3.60;;
49610;SDS011;35515;48.766;9.176;2023-07-02T04:33:46;7.93;;;3.92;;
49610;SDS011;35515;48.766;9.176;2023-07-02T04:36:12;7.18;;;3.67;;
49610;SDS011;35515;48.766;9.176;2023-07-02T04:38:39;5.43;;;3.70;;
49610;SDS011;35515;48.766;9.176;2023-07-02T04:41:05;5.55;;;3.13;;
49610;SDS011;35515;48.766;9.176;2023-07-02T04:43:35;7.80;;;3.88;;
49610;SDS011;35515;48.766;9.176;2023-07-02T04:46:03;5.32;;;3.63;;
49610;SDS011;35515;48.766;9.176;2023-07-02T04:48:32;7.88;;;4.00;;
49610;SDS011;35515;48.766;9.176;2023-07-02T04:50:59;6.97;;;3.78;;
49610;SDS011;35515;48.766;9.176;2023-07-02T04:53:25;6.82;;;3.75;;
49610;SDS011;35515;48.766;9.176;2023-07-02T04:55:52;6.30;;;3.83;;
49610;SDS011;35515;48.766;9.176;2023-07-02T04:58:18;7.22;;;3.70;;
49610;SDS011;35515;48.766;9.176;2023-07-02T05:00:45;9.65;;;3.97;;
49610;SDS011;35515;48.766;9.176;2023-07-02T05:03:13;5.43;;;3.40;;
49610;SDS011;35515;48.766;9.176;2023-07-02T05:05:39;9.07;;;3.78;;
49610;SDS011;35515;48.766;9.176;2023-07-02T05:08:06;7.88;;;3.85;;
49610;SDS011;35515;48.766;9.176;2023-07-02T05:10:32;6.38;;;3.85;;
49610;SDS011;35515;48.766;9.176;2023-07-02T05:13:00;5.78;;;3.65;;
49610;SDS011;35515;48.766;9.176;2023-07-02T05:15:27;7.07;;;3.63;;
49610;SDS011;35515;48.766;9.176;2023-07-02T05:17:53;6.10;;;3.85;;
49610;SDS011;35515;48.766;9.176;2023-07-02T05:20:21;6.45;;;3.58;;
49610;SDS011;35515;48.766;9.176;2023-07-02T05:22:47;7.32;;;3.78;;
49610;SDS011;35515;48.766;9.176;2023-07-02T05:25:14;7.32;;;3.45;;
49610;SDS011;35515;48.766;9.176;2023-07-02T05:27:40;6.15;;;3.35;;
49610;SDS011;35515;48.766;9.176;2023-07-02T05:30:07;5.55;;;3.45;;
49610;SDS011;35515;48.766;9.176;2023-07-02T05:32:34;5.13;;;3.25;;
49610;SDS011;35515;48.766;9.176;2023-07-02T05:35:01;7.43;;;3.58;;
49610;SDS011;35515;48.766;9.176;2023-07-02T05:37:29;7.13;;;3.80;;
49610;SDS011;35515;48.766;9.176;2023-07-02T05:39:56;6.45;;;3.85;;
49610;SDS011;35515;48.766;9.176;2023-07-02T05:42:22;8.35;;;4.13;;
49610;SDS011;35515;48.766;9.176;2023-07-02T05:44:49;7.78;;;3.60;;
49610;SDS011;35515;48.766;9.176;2023-07-02T05:47:16;6.43;;;3.90;;
49610;SDS011;35515;48.766;9.176;2023-07-02T05:49:42;6.75;;;4.00;;
49610;SDS011;35515;48.766;9.176;2023-07-02T05:52:09;8.68;;;4.90;;
49610;SDS011;35515;48.766;9.176;2023-07-02T05:54:39;6.15;;;4.60;;
49610;SDS011;35515;48.766;9.176;2023-07-02T05:57:06;7.60;;;4.40;;
49610;SDS011;35515;48.766;9.176;2023-07-02T05:59:32;6.28;;;4.40;;
49610;SDS011;35515;48.766;9.176;2023-07-02T06:01:59;9.77;;;4.50;;
49610;SDS011;35515;48.766;9.176;2023-07-02T06:04:26;6.32;;;4.70;;
49610;SDS011;35515;48.766;9.176;2023-07-02T06:06:52;8.65;;;4.13;;
49610;SDS011;35515;48.766;9.176;2023-07-02T06:09:19;8.02;;;4.93;;
49610;SDS011;35515;48.766;9.176;2023-07-02T06:11:47;8.30;;;5.00;;
49610;SDS011;35515;48.766;9.176;2023-07-02T06:14:13;8.80;;;5.00;;
49610;SDS011;35515;48.766;9.176;2023-07-02T06:16:40;11.00;;;5.30;;
49610;SDS011;35515;48.766;9.176;2023-07-02T06:19:06;9.90;;;5.07;;
49610;SDS011;35515;48.766;9.176;2023-07-02T06:21:33;9.68;;;5.60;;
49610;SDS011;35515;48.766;9.176;2023-07-02T06:24:00;10.10;;;5.78;;
49610;SDS011;35515;48.766;9.176;2023-07-02T06:26:27;9.73;;;5.97;;
49610;SDS011;35515;48.766;9.176;2023-07-02T06:28:55;10.45;;;6.80;;
49610;SDS011;35515;48.766;9.176;2023-07-02T06:31:23;13.40;;;6.95;;
49610;SDS011;35515;48.766;9.176;2023-07-02T06:33:50;12.32;;;6.63;;
49610;SDS011;35515;48.766;9.176;2023-07-02T06:36:16;12.75;;;7.55;;
49610;SDS011;35515;48.766;9.176;2023-07-02T06:38:43;13.05;;;7.72;;
49610;SDS011;35515;48.766;9.176;2023-07-02T06:41:10;15.43;;;7.90;;
49610;SDS011;35515;48.766;9.176;2023-07-02T06:43:37;10.60;;;6.90;;
49610;SDS011;35515;48.766;9.176;2023-07-02T06:46:05;15.45;;;7.53;;
49610;SDS011;35515;48.766;9.176;2023-07-02T06:48:31;14.50;;;7.97;;
49610;SDS011;35515;48.766;9.176;2023-07-02T06:50:58;16.15;;;7.80;;
49610;SDS011;35515;48.766;9.176;2023-07-02T06:53:24;14.18;;;7.82;;
49610;SDS011;35515;48.766;9.176;2023-07-02T06:55:51;12.27;;;7.95;;
49610;SDS011;35515;48.766;9.176;2023-07-02T06:58:17;13.65;;;7.75;;
49610;SDS011;35515;48.766;9.176;2023-07-02T07:00:44;17.48;;;8.20;;
49610;SDS011;35515;48.766;9.176;2023-07-02T07:03:12;12.63;;;7.28;;
49610;SDS011;35515;48.766;9.176;2023-07-02T07:05:39;13.50;;;7.82;;
49610;SDS011;35515;48.766;9.176;2023-07-02T07:08:05;16.15;;;7.72;;
49610;SDS011;35515;48.766;9.176;2023-07-02T07:10:32;16.17;;;8.85;;
49610;SDS011;35515;48.766;9.176;2023-07-02T07:12:59;16.45;;;8.10;;
49610;SDS011;35515;48.766;9.176;2023-07-02T07:15:27;18.17;;;8.68;;
49610;SDS011;35515;48.766;9.176;2023-07-02T07:17:53;12.43;;;8.38;;
49610;SDS011;35515;48.766;9.176;2023-07-02T07:20:21;18.30;;;8.80;;
49610;SDS011;35515;48.766;9.176;2023-07-02T07:22:47;15.00;;;9.25;;
49610;SDS011;35515;48.766;9.176;2023-07-02T07:25:14;20.23;;;10.27;;
49610;SDS011;35515;48.766;9.176;2023-07-02T07:27:41;21.23;;;9.85;;
49610;SDS011;35515;48.766;9.176;2023-07-02T07:30:10;17.45;;;10.10;;
49610;SDS011;35515;48.766;9.176;2023-07-02T07:32:39;18.13;;;10.23;;
49610;SDS011;35515;48.766;9.176;2023-07-02T07:35:06;19.90;;;10.50;;
49610;SDS011;35515;48.766;9.176;2023-07-02T07:37:34;24.17;;;11.27;;
49610;SDS011;35515;48.766;9.176;2023-07-02T07:40:00;18.05;;;11.25;;
49610;SDS011;35515;48.766;9.176;2023-07-02T07:42:27;20.20;;;11.82;;
49610;SDS011;35515;48.766;9.176;2023-07-02T07:44:53;20.77;;;12.25;;
49610;SDS011;35515;48.766;9.176;2023-07-02T07:47:20;18.52;;;11.85;;
49610;SDS011;35515;48.766;9.176;2023-07-02T07:49:46;21.88;;;12.18;;
49610;SDS011;35515;48.766;9.176;2023-07-02T07:52:13;19.77;;;10.50;;
49610;SDS011;35515;48.766;9.176;2023-07-02T07:54:41;19.40;;;11.13;;
49610;SDS011;35515;48.766;9.176;2023-07-02T07:57:08;21.58;;;12.40;;
49610;SDS011;35515;48.766;9.176;2023-07-02T07:59:34;20.83;;;11.65;;
49610;SDS011;35515;48.766;9.176;2023-07-02T08:02:01;23.42;;;12.13;;
49610;SDS011;35515;48.766;9.176;2023-07-02T08:04:28;20.02;;;12.40;;
49610;SDS011;35515;48.766;9.176;2023-07-02T08:06:54;19.65;;;12.10;;
49610;SDS011;35515;48.766;9.176;2023-07-02T08:09:22;18.05;;;11.50;;
49610;SDS011;35515;48.766;9.176;2023-07-02T08:11:50;20.67;;;11.30;;
49610;SDS011;35515;48.766;9.176;2023-07-02T08:14:17;20.77;;;12.27;;
49610;SDS011;35515;48.766;9.176;2023-07-02T08:16:43;21.95;;;11.65;;
49610;SDS011;35515;48.766;9.176;2023-07-02T08:19:10;18.30;;;11.18;;
49610;SDS011;35515;48.766;9.176;2023-07-02T08:21:37;19.05;;;11.23;;
49610;SDS011;35515;48.766;9.176;2023-07-02T08:24:04;22.27;;;12.73;;
49610;SDS011;35515;48.766;9.176;2023-07-02T08:26:31;20.63;;;12.15;;
49610;SDS011;35515;48.766;9.176;2023-07-02T08:28:59;24.98;;;11.18;;
49610;SDS011;35515;48.766;9.176;2023-07-02T08:31:26;20.15;;;11.65;;
49610;SDS011;35515;48.766;9.176;2023-07-02T08:33:52;24.00;;;11.77;;
49610;SDS011;35515;48.766;9.176;2023-07-02T08:36:19;23.33;;;12.30;;
49610;SDS011;35515;48.766;9.176;2023-07-02T08:38:45;20.77;;;12.00;;
49610;SDS011;35515;48.766;9.176;2023-07-02T08:41:12;18.65;;;11.45;;
49610;SDS011;35515;48.766;9.176;2023-07-02T08:43:38;21.85;;;12.52;;
49610;SDS011;35515;48.766;9.176;2023-07-02T08:46:07;20.83;;;11.73;;
49610;SDS011;35515;48.766;9.176;2023-07-02T08:48:34;20.20;;;12.27;;
49610;SDS011;35515;48.766;9.176;2023-07-02T08:51:02;21.13;;;12.77;;
49610;SDS011;35515;48.766;9.176;2023-07-02T08:53:29;20.90;;;12.15;;
49610;SDS011;35515;48.766;9.176;2023-07-02T08:55:58;17.08;;;11.63;;
49610;SDS011;35515;48.766;9.176;2023-07-02T08:58:25;17.98;;;11.45;;
49610;SDS011;35515;48.766;9.176;2023-07-02T09:01:03;17.90;;;10.15;;
49610;SDS011;35515;48.766;9.176;2023-07-02T09:03:32;14.85;;;9.57;;
49610;SDS011;35515;48.766;9.176;2023-07-02T09:05:59;16.35;;;10.82;;
49610;SDS011;35515;48.766;9.176;2023-07-02T09:08:26;18.65;;;10.43;;
49610;SDS011;35515;48.766;9.176;2023-07-02T09:10:53;17.40;;;10.52;;
49610;SDS011;35515;48.766;9.176;2023-07-02T09:13:20;16.02;;;9.85;;
49610;SDS011;35515;48.766;9.176;2023-07-02T09:15:46;16.95;;;9.43;;
49610;SDS011;35515;48.766;9.176;2023-07-02T09:18:17;15.65;;;10.13;;
49610;SDS011;35515;48.766;9.176;2023-07-02T09:20:45;14.40;;;8.98;;
49610;SDS011;35515;48.766;9.176;2023-07-02T09:23:12;18.80;;;10.25;;
49610;SDS011;35515;48.766;9.176;2023-07-02T09:25:39;16.00;;;10.10;;
49610;SDS011;35515;48.766;9.176;2023-07-02T09:28:17;18.25;;;9.80;;
49610;SDS011;35515;48.766;9.176;2023-07-02T09:30:51;17.02;;;9.50;;
49610;SDS011;35515;48.766;9.176;2023-07-02T09:33:19;18.55;;;10.48;;
49610;SDS011;35515;48.766;9.176;2023-07-02T09:35:48;15.90;;;10.20;;
49610;SDS011;35515;48.766;9.176;2023-07-02T09:38:15;18.60;;;9.00;;
49610;SDS011;35515;48.766;9.176;2023-07-02T09:40:44;17.67;;;9.82;;
49610;SDS011;35515;48.766;9.176;2023-07-02T09:43:12;17.98;;;10.35;;
49610;SDS011;35515;48.766;9.176;2023-07-02T09:45:40;15.75;;;10.93;;
49610;SDS011;35515;48.766;9.176;2023-07-02T09:48:08;16.40;;;9.98;;
49610;SDS011;35515;48.766;9.176;2023-07-02T09:50:37;17.67;;;9.82;;
49610;SDS011;35515;48.766;9.176;2023-07-02T09:53:06;15.52;;;9.25;;
49610;SDS011;35515;48.766;9.176;2023-07-02T09:55:33;16.90;;;10.30;;
49610;SDS011;35515;48.766;9.176;2023-07-02T09:58:00;17.27;;;9.45;;
49610;SDS011;35515;48.766;9.176;2023-07-02T10:00:26;15.38;;;10.30;;
49610;SDS011;35515;48.766;9.176;2023-07-02T10:02:53;18.98;;;11.52;;
49610;SDS011;35515;48.766;9.176;2023-07-02T10:05:26;19.55;;;10.68;;
49610;SDS011;35515;48.766;9.176;2023-07-02T10:07:53;15.38;;;10.00;;
49610;SDS011;35515;48.766;9.176;2023-07-02T10:10:28;18.77;;;10.10;;
49610;SDS011;35515;48.766;9.176;2023-07-02T10:12:56;16.52;;;10.75;;
49610;SDS011;35515;48.766;9.176;2023-07-02T10:15:26;18.80;;;11.07;;
49610;SDS011;35515;48.766;9.176;2023-07-02T10:17:56;19.33;;;11.00;;
49610;SDS011;35515;48.766;9.176;2023-07-02T10:20:31;22.58;;;12.40;;
49610;SDS011;35515;48.766;9.176;2023-07-02T10:22:59;18.35;;;10.80;;
49610;SDS011;35515;48.766;9.176;2023-07-02T10:25:27;19.85;;;12.05;;
49610;SDS011;35515;48.766;9.176;2023-07-02T10:27:56;16.00;;;11.45;;
49610;SDS011;35515;48.766;9.176;2023-07-02T10:30:32;17.27;;;11.30;;
49610;SDS011;35515;48.766;9.176;2023-07-02T10:33:09;21.58;;;13.05;;
49610;SDS011;35515;48.766;9.176;2023-07-02T10:35:37;21.35;;;13.35;;
49610;SDS011;35515;48.766;9.176;2023-07-02T10:38:04;18.23;;;12.65;;
49610;SDS011;35515;48.766;9.176;2023-07-02T10:40:33;22.77;;;13.50;;
49610;SDS011;35515;48.766;9.176;2023-07-02T10:43:00;19.58;;;11.82;;
49610;SDS011;35515;48.766;9.176;2023-07-02T10:45:33;18.63;;;11.00;;
49610;SDS011;35515;48.766;9.176;2023-07-02T10:48:01;17.10;;;10.38;;
49610;SDS011;35515;48.766;9.176;2023-07-02T10:50:30;20.48;;;11.45;;
49610;SDS011;35515;48.766;9.176;2023-07-02T10:52:58;20.60;;;12.02;;
49610;SDS011;35515;48.766;9.176;2023-07-02T10:55:24;18.40;;;11.75;;
49610;SDS011;35515;48.766;9.176;2023-07-02T10:58:03;17.23;;;11.55;;
49610;SDS011;35515;48.766;9.176;2023-07-02T11:00:30;18.90;;;11.63;;
49610;SDS011;35515;48.766;9.176;2023-07-02T11:02:57;17.75;;;11.80;;
49610;SDS011;35515;48.766;9.176;2023-07-02T11:05:25;18.90;;;12.07;;
49610;SDS011;35515;48.766;9.176;2023-07-02T11:07:52;17.40;;;11.75;;
49610;SDS011;35515;48.766;9.176;2023-07-02T11:10:22;19.20;;;11.52;;
49610;SDS011;35515;48.766;9.176;2023-07-02T11:12:49;19.45;;;11.45;;
49610;SDS011;35515;48.766;9.176;2023-07-02T11:15:17;18.02;;;12.05;;
49610;SDS011;35515;48.766;9.176;2023-07-02T11:17:44;19.15;;;12.15;;
49610;SDS011;35515;48.766;9.176;2023-07-02T11:20:12;20.42;;;13.07;;
49610;SDS011;35515;48.766;9.176;2023-07-02T11:22:39;18.33;;;11.20;;
49610;SDS011;35515;48.766;9.176;2023-07-02T11:25:12;21.25;;;11.32;;
49610;SDS011;35515;48.766;9.176;2023-07-02T11:27:40;23.35;;;12.52;;
49610;SDS011;35515;48.766;9.176;2023-07-02T11:30:07;22.70;;;12.18;;
49610;SDS011;35515;48.766;9.176;2023-07-02T11:32:46;18.73;;;11.48;;
49610;SDS011;35515;48.766;9.176;2023-07-02T11:35:14;19.48;;;11.35;;
49610;SDS011;35515;48.766;9.176;2023-07-02T11:37:41;19.30;;;12.27;;
49610;SDS011;35515;48.766;9.176;2023-07-02T11:40:08;17.70;;;12.68;;
49610;SDS011;35515;48.766;9.176;2023-07-02T11:42:35;18.38;;;11.25;;
49610;SDS011;35515;48.766;9.176;2023-07-02T11:45:03;15.52;;;10.45;;
49610;SDS011;35515;48.766;9.176;2023-07-02T11:47:30;15.30;;;10.13;;
49610;SDS011;35515;48.766;9.176;2023-07-02T11:49:58;17.83;;;11.30;;
49610;SDS011;35515;48.766;9.176;2023-07-02T11:52:24;17.90;;;11.55;;
49610;SDS011;35515;48.766;9.176;2023-07-02T11:54:51;17.75;;;11.25;;
49610;SDS011;35515;48.766;9.176;2023-07-02T11:57:17;17.42;;;10.35;;
49610;SDS011;35515;48.766;9.176;2023-07-02T11:59:44;18.27;;;10.93;;
49610;SDS011;35515;48.766;9.176;2023-07-02T12:02:10;19.60;;;11.23;;
49610;SDS011;35515;48.766;9.176;2023-07-02T12:04:37;17.83;;;10.75;;
49610;SDS011;35515;48.766;9.176;2023-07-02T12:07:06;17.70;;;11.30;;
49610;SDS011;35515;48.766;9.176;2023-07-02T12:09:33;17.35;;;11.23;;
49610;SDS011;35515;48.766;9.176;2023-07-02T12:11:59;20.15;;;11.25;;
49610;SDS011;35515;48.766;9.176;2023-07-02T12:14:26;19.05;;;11.00;;
49610;SDS011;35515;48.766;9.176;2023-07-02T12:16:52;18.10;;;12.57;;
49610;SDS011;35515;48.766;9.176;2023-07-02T12:19:19;19.98;;;12.15;;
49610;SDS011;35515;48.766;9.176;2023-07-02T12:21:45;16.83;;;11.55;;
49610;SDS011;35515;48.766;9.176;2023-07-02T12:24:13;18.40;;;11.88;;
49610;SDS011;35515;48.766;9.176;2023-07-02T12:26:40;15.95;;;10.27;;
49610;SDS011;35515;48.766;9.176;2023-07-02T12:29:06;18.17;;;11.70;;
49610;SDS011;35515;48.766;9.176;2023-07-02T12:31:33;15.20;;;10.35;;
49610;SDS011;35515;48.766;9.176;2023-07-02T12:33:59;17.90;;;11.32;;
49610;SDS011;35515;48.766;9.176;2023-07-02T12:36:26;18.50;;;10.50;;
49610;SDS011;35515;48.766;9.176;2023-07-02T12:38:52;17.27;;;11.00;;
49610;SDS011;35515;48.766;9.176;2023-07-02T12:41:20;19.15;;;11.30;;
49610;SDS011;35515;48.766;9.176;2023-07-02T12:43:46;19.05;;;11.52;;
49610;SDS011;35515;48.766;9.176;2023-07-02T12:46:13;17.65;;;11.70;;
49610;SDS011;35515;48.766;9.176;2023-07-02T12:48:39;17.25;;;11.68;;
49610;SDS011;35515;48.766;9.176;2023-07-02T12:51:06;20.42;;;12.02;;
49610;SDS011;35515;48.766;9.176;2023-07-02T12:53:32;18.15;;;11.13;;
49610;SDS011;35515;48.766;9.176;2023-07-02T12:55:59;16.63;;;10.73;;
49610;SDS011;35515;48.766;9.176;2023-07-02T12:58:27;17.52;;;11.85;;
49610;SDS011;35515;48.766;9.176;2023-07-02T13:00:53;19.23;;;12.07;;
49610;SDS011;35515;48.766;9.176;2023-07-02T13:03:20;19.75;;;12.23;;
49610;SDS011;35515;48.766;9.176;2023-07-02T13:05:48;17.08;;;11.00;;
49610;SDS011;35515;48.766;9.176;2023-07-02T13:08:15;19.15;;;12.20;;
49610;SDS011;35515;48.766;9.176;2023-07-02T13:10:41;17.27;;;10.95;;
49610;SDS011;35515;48.766;9.176;2023-07-02T13:13:08;18.00;;;10.98;;
49610;SDS011;35515;48.766;9.176;2023-07-02T13:15:36;20.35;;;12.05;;
49610;SDS011;35515;48.766;9.176;2023-07-02T13:18:03;19.13;;;10.77;;
49610;SDS011;35515;48.766;9.176;2023-07-02T13:20:30;15.95;;;10.38;;
49610;SDS011;35515;48.766;9.176;2023-07-02T13:22:56;15.75;;;11.10;;
49610;SDS011;35515;48.766;9.176;2023-07-02T13:25:24;19.08;;;11.40;;
49610;SDS011;35515;48.766;9.176;2023-07-02T13:27:50;21.05;;;11.18;;
49610;SDS011;35515;48.766;9.176;2023-07-02T13:30:17;18.63;;;10.52;;
49610;SDS011;35515;48.766;9.176;2023-07-02T13:32:44;17.73;;;11.75;;
49610;SDS011;35515;48.766;9.176;2023-07-02T13:35:11;15.73;;;9.80;;
49610;SDS011;35515;48.766;9.176;2023-07-02T13:37:37;21.05;;;12.63;;
49610;SDS011;35515;48.766;9.176;2023-07-02T13:40:04;21.98;;;10.75;;
49610;SDS011;35515;48.766;9.176;2023-07-02T13:42:33;15.88;;;10.65;;
49610;SDS011;35515;48.766;9.176;2023-07-02T13:45:00;17.65;;;10.60;;
49610;SDS011;35515;48.766;9.176;2023-07-02T13:47:27;16.38;;;9.70;;
49610;SDS011;35515;48.766;9.176;2023-07-02T13:49:55;17.38;;;9.85;;
49610;SDS011;35515;48.766;9.176;2023-07-02T13:52:22;16.77;;;10.30;;
49610;SDS011;35515;48.766;9.176;2023-07-02T13:54:49;18.52;;;10.40;;
49610;SDS011;35515;48.766;9.176;2023-07-02T13:57:15;16.17;;;9.98;;
49610;SDS011;35515;48.766;9.176;2023-07-02T13:59:43;18.05;;;10.43;;
49610;SDS011;35515;48.766;9.176;2023-07-02T14:02:09;17.45;;;10.52;;
49610;SDS011;35515;48.766;9.176;2023-07-02T14:04:36;19.15;;;10.05;;
49610;SDS011;35515;48.766;9.176;2023-07-02T14:07:03;28.70;;;10.00;;
49610;SDS011;35515;48.766;9.176;2023-07-02T14:09:30;18.02;;;10.48;;
49610;SDS011;35515;48.766;9.176;2023-07-02T14:11:56;20.30;;;11.57;;
49610;SDS011;35515;48.766;9.176;2023-07-02T14:14:23;19.45;;;11.88;;
49610;SDS011;35515;48.766;9.176;2023-07-02T14:16:51;19.85;;;10.30;;
49610;SDS011;35515;48.766;9.176;2023-07-02T14:19:18;16.73;;;10.82;;
49610;SDS011;35515;48.766;9.176;2023-07-02T14:21:44;20.25;;;11.43;;
49610;SDS011;35515;48.766;9.176;2023-07-02T14:24:14;17.30;;;11.05;;
49610;SDS011;35515;48.766;9.176;2023-07-02T14:26:47;17.55;;;12.00;;
49610;SDS011;35515;48.766;9.176;2023-07-02T14:29:13;19.27;;;10.88;;
49610;SDS011;35515;48.766;9.176;2023-07-02T14:31:40;19.80;;;11.43;;
49610;SDS011;35515;48.766;9.176;2023-07-02T14:34:08;17.63;;;10.45;;